Time;durP1;ratioP1;P1;durP2;ratioP2;P2;SDS_P1;SDS_P2;PMS_P1;PMS_P2;Temp;Humidity;BMP_temperature;BMP_pressure;BME280_temperature;BME280_humidity;BME280_pressure;Samples;Min_cycle;Max_cycle;Signal;HPM_P1;HPM_P2
2021/04/26 00:00:36;;;;;;;13.48;5.93;;;;;;;;;;5049394;28;20017;-63
2021/04/26 00:03:02;;;;;;;13.02;4.63;;;;;;;;;;5049185;28;20009;-63
2021/04/26 00:05:27;;;;;;;16.40;5.75;;;;;;;;;;5049777;28;20013;-63
2021/04/26 00:07:56;;;;;;;18.55;5.88;;;;;;;;;;5049107;28;20422;-63
2021/04/26 00:10:22;;;;;;;23.63;6.35;;;;;;;;;;5049950;28;20074;-63
2021/04/26 00:12:48;;;;;;;9.75;4.88;;;;;;;;;;5049538;28;20420;-63
2021/04/26 00:15:15;;;;;;;19.38;5.57;;;;;;;;;;5049732;28;20023;-63
2021/04/26 00:17:41;;;;;;;14.60;6.00;;;;;;;;;;5048772;28;20132;-63
2021/04/26 00:20:07;;;;;;;11.05;5.25;;;;;;;;;;5050521;23;20081;-67
2021/04/26 00:22:32;;;;;;;20.80;5.80;;;;;;;;;;5037528;28;20117;-67
2021/04/26 00:24:57;;;;;;;13.77;5.35;;;;;;;;;;5048527;28;20182;-66
2021/04/26 00:27:22;;;;;;;14.73;5.03;;;;;;;;;;5053623;28;20044;-66
2021/04/26 00:29:47;;;;;;;11.07;5.55;;;;;;;;;;5053349;28;20271;-66
2021/04/26 00:32:13;;;;;;;15.75;6.05;;;;;;;;;;5051594;28;20496;-66
2021/04/26 00:34:38;;;;;;;16.65;5.55;;;;;;;;;;5053864;28;20033;-66
2021/04/26 00:37:03;;;;;;;11.13;5.30;;;;;;;;;;5053071;28;20098;-66
2021/04/26 00:39:28;;;;;;;20.35;6.03;;;;;;;;;;5053035;28;20260;-66
2021/04/26 00:41:53;;;;;;;13.63;5.70;;;;;;;;;;5052810;28;20013;-66
2021/04/26 00:44:18;;;;;;;14.27;5.93;;;;;;;;;;5053400;28;20307;-66
2021/04/26 00:46:44;;;;;;;12.23;5.65;;;;;;;;;;5052369;28;20024;-66
2021/04/26 00:49:09;;;;;;;18.88;6.05;;;;;;;;;;5044338;28;20468;-66
2021/04/26 00:51:34;;;;;;;17.45;6.35;;;;;;;;;;5052568;28;20039;-66
2021/04/26 00:53:59;;;;;;;14.45;5.55;;;;;;;;;;5053119;28;20406;-66
2021/04/26 00:56:24;;;;;;;10.02;4.80;;;;;;;;;;5052761;28;20054;-66
2021/04/26 00:58:50;;;;;;;13.38;6.20;;;;;;;;;;5049996;28;20081;-66
2021/04/26 01:01:18;;;;;;;13.95;5.22;;;;;;;;;;5050998;28;20083;-66
2021/04/26 01:03:44;;;;;;;18.02;5.75;;;;;;;;;;5052108;28;20028;-65
2021/04/26 01:06:09;;;;;;;14.52;5.13;;;;;;;;;;5052721;28;20020;-66
2021/04/26 01:08:34;;;;;;;14.63;5.40;;;;;;;;;;5047619;28;20108;-66
2021/04/26 01:10:59;;;;;;;11.73;5.43;;;;;;;;;;5038134;28;20272;-66
2021/04/26 01:13:27;;;;;;;12.95;6.13;;;;;;;;;;5047238;28;20401;-65
2021/04/26 01:16:04;;;;;;;17.83;5.43;;;;;;;;;;5050199;28;20036;-66
2021/04/26 01:18:35;;;;;;;9.35;5.55;;;;;;;;;;5049482;28;20025;-66
2021/04/26 01:21:17;;;;;;;9.57;5.32;;;;;;;;;;5050451;28;20024;-66
2021/04/26 01:24:07;;;;;;;13.23;6.38;;;;;;;;;;5050355;28;20024;-66
2021/04/26 01:26:32;;;;;;;;;;;;;;;;;;5051337;28;20048;-66
2021/04/26 01:29:06;;;;;;;15.77;5.40;;;;;;;;;;5048771;28;19912;-65
2021/04/26 01:31:38;;;;;;;11.50;4.75;;;;;;;;;;5043834;28;20025;-66
2021/04/26 01:34:04;;;;;;;18.73;5.72;;;;;;;;;;5046581;28;20085;-66
2021/04/26 01:36:30;;;;;;;9.27;5.50;;;;;;;;;;5045407;28;20017;-65
2021/04/26 01:38:56;;;;;;;13.23;5.20;;;;;;;;;;5049115;28;20031;-65
2021/04/26 01:41:23;;;;;;;20.10;6.30;;;;;;;;;;5049605;28;20029;-66
2021/04/26 01:43:49;;;;;;;13.65;5.18;;;;;;;;;;5048104;28;20021;-66
2021/04/26 01:46:15;;;;;;;17.92;5.93;;;;;;;;;;5046536;28;20041;-65
2021/04/26 01:48:42;;;;;;;11.55;4.60;;;;;;;;;;5050580;28;20024;-65
2021/04/26 01:51:08;;;;;;;17.15;5.55;;;;;;;;;;5051370;28;20025;-66
2021/04/26 01:53:34;;;;;;;14.35;5.40;;;;;;;;;;5052498;28;20013;-66
2021/04/26 01:56:00;;;;;;;15.95;5.43;;;;;;;;;;5051961;28;20028;-65
2021/04/26 01:58:26;;;;;;;11.05;5.72;;;;;;;;;;5051155;28;20028;-66
2021/04/26 02:00:51;;;;;;;15.25;5.20;;;;;;;;;;5051112;28;20028;-66
2021/04/26 02:03:19;;;;;;;15.50;5.18;;;;;;;;;;5046540;28;20384;-66
2021/04/26 02:05:46;;;;;;;9.32;4.97;;;;;;;;;;5051791;28;20044;-65
2021/04/26 02:08:12;;;;;;;10.48;5.90;;;;;;;;;;5050972;28;20108;-66
2021/04/26 02:10:38;;;;;;;15.20;6.22;;;;;;;;;;5050334;28;20415;-65
2021/04/26 02:13:05;;;;;;;14.02;5.43;;;;;;;;;;5051279;28;20017;-65
2021/04/26 02:15:30;;;;;;;12.77;5.53;;;;;;;;;;5050242;28;20035;-65
2021/04/26 02:17:56;;;;;;;16.92;6.25;;;;;;;;;;5048920;28;20033;-65
2021/04/26 02:20:21;;;;;;;12.25;5.38;;;;;;;;;;5050382;28;20029;-65
2021/04/26 02:22:47;;;;;;;9.00;5.40;;;;;;;;;;5051316;28;20021;-65
2021/04/26 02:25:13;;;;;;;14.65;5.50;;;;;;;;;;5051523;28;20024;-65
2021/04/26 02:27:38;;;;;;;16.20;5.45;;;;;;;;;;5051169;28;20017;-65
2021/04/26 02:30:05;;;;;;;21.20;5.65;;;;;;;;;;5050473;28;20024;-66
2021/04/26 02:32:32;;;;;;;16.77;5.72;;;;;;;;;;5050220;28;20393;-65
2021/04/26 02:34:58;;;;;;;14.05;5.45;;;;;;;;;;5041584;28;20193;-65
2021/04/26 02:37:30;;;;;;;13.32;5.00;;;;;;;;;;5049999;28;20021;-65
2021/04/26 02:39:58;;;;;;;20.77;5.65;;;;;;;;;;5050646;28;20083;-65
2021/04/26 02:42:24;;;;;;;17.63;5.35;;;;;;;;;;5048937;28;20029;-65
2021/04/26 02:44:50;;;;;;;9.70;5.45;;;;;;;;;;5045713;28;20036;-65
2021/04/26 02:47:17;;;;;;;13.00;4.70;;;;;;;;;;5050854;28;20025;-65
2021/04/26 02:49:43;;;;;;;13.02;5.38;;;;;;;;;;5049395;28;20461;-65
2021/04/26 02:52:09;;;;;;;16.05;5.20;;;;;;;;;;5048337;28;20390;-65
2021/04/26 02:54:34;;;;;;;13.43;5.28;;;;;;;;;;5038912;28;20104;-65
2021/04/26 02:57:00;;;;;;;12.23;5.10;;;;;;;;;;5051023;28;20025;-65
2021/04/26 02:59:26;;;;;;;14.45;5.20;;;;;;;;;;5049723;28;20013;-65
2021/04/26 03:01:52;;;;;;;11.60;4.70;;;;;;;;;;5049745;28;20029;-65
2021/04/26 03:04:17;;;;;;;13.43;5.07;;;;;;;;;;5050596;28;20062;-65
2021/04/26 03:06:44;;;;;;;11.25;4.40;;;;;;;;;;5050644;28;20056;-65
2021/04/26 03:09:10;;;;;;;13.80;4.20;;;;;;;;;;5050135;28;20536;-65
2021/04/26 03:11:35;;;;;;;9.20;5.55;;;;;;;;;;5049871;28;20020;-66
2021/04/26 03:14:01;;;;;;;8.45;4.18;;;;;;;;;;5050127;28;20437;-65
2021/04/26 03:16:27;;;;;;;11.48;4.75;;;;;;;;;;5044867;28;20075;-65
2021/04/26 03:18:52;;;;;;;16.60;5.45;;;;;;;;;;5049854;28;20033;-65
2021/04/26 03:21:17;;;;;;;10.25;4.18;;;;;;;;;;5049872;28;20025;-65
2021/04/26 03:23:43;;;;;;;10.27;4.32;;;;;;;;;;5049616;28;20473;-65
2021/04/26 03:26:08;;;;;;;9.07;4.38;;;;;;;;;;5049838;28;20101;-65
2021/04/26 03:28:34;;;;;;;8.52;4.43;;;;;;;;;;5049878;28;20016;-65
2021/04/26 03:31:01;;;;;;;11.52;5.40;;;;;;;;;;5046506;28;20132;-65
2021/04/26 03:33:27;;;;;;;12.00;4.18;;;;;;;;;;5050381;28;20028;-65
2021/04/26 03:35:55;;;;;;;13.73;4.93;;;;;;;;;;5048604;28;20036;-65
2021/04/26 03:38:20;;;;;;;11.45;4.28;;;;;;;;;;5050104;28;20104;-65
2021/04/26 03:40:45;;;;;;;14.30;4.32;;;;;;;;;;5044864;28;20436;-65
2021/04/26 03:43:11;;;;;;;13.52;4.65;;;;;;;;;;5049893;28;20036;-65
2021/04/26 03:45:39;;;;;;;14.65;4.50;;;;;;;;;;5049845;28;20513;-66
2021/04/26 03:48:04;;;;;;;10.38;4.75;;;;;;;;;;5044513;28;20474;-65
2021/04/26 03:50:30;;;;;;;11.82;4.72;;;;;;;;;;5050483;28;20019;-65
2021/04/26 03:52:55;;;;;;;9.73;4.47;;;;;;;;;;5049570;28;20353;-65
2021/04/26 03:55:21;;;;;;;11.05;4.22;;;;;;;;;;5041595;28;20036;-65
2021/04/26 03:57:47;;;;;;;11.68;5.18;;;;;;;;;;5049185;28;20044;-65
2021/04/26 04:00:13;;;;;;;9.60;4.70;;;;;;;;;;5049912;28;20338;-65
2021/04/26 04:02:38;;;;;;;19.00;4.35;;;;;;;;;;5055315;28;20020;-65
2021/04/26 04:05:04;;;;;;;14.18;4.47;;;;;;;;;;5056592;28;20375;-65
2021/04/26 04:07:29;;;;;;;9.98;4.75;;;;;;;;;;5055753;28;20032;-65
2021/04/26 04:09:54;;;;;;;13.75;4.15;;;;;;;;;;5055886;28;20484;-65
2021/04/26 04:12:20;;;;;;;9.57;4.30;;;;;;;;;;5055647;28;20029;-65
2021/04/26 04:14:45;;;;;;;12.75;4.05;;;;;;;;;;5055694;28;20028;-65
2021/04/26 04:17:10;;;;;;;10.70;4.13;;;;;;;;;;5055898;28;20032;-65
2021/04/26 04:19:36;;;;;;;11.93;4.28;;;;;;;;;;5055752;28;20134;-65
2021/04/26 04:22:01;;;;;;;8.45;4.03;;;;;;;;;;5052698;28;20603;-65
2021/04/26 04:24:26;;;;;;;11.00;4.85;;;;;;;;;;5056021;28;20017;-65
2021/04/26 04:26:51;;;;;;;11.90;4.43;;;;;;;;;;5055116;28;20048;-66
2021/04/26 04:29:17;;;;;;;7.22;3.92;;;;;;;;;;5054793;28;20039;-65
2021/04/26 04:31:42;;;;;;;12.20;4.82;;;;;;;;;;5055664;28;20107;-65
2021/04/26 04:34:07;;;;;;;11.60;4.75;;;;;;;;;;5047609;28;20116;-65
2021/04/26 04:36:32;;;;;;;7.68;4.88;;;;;;;;;;5052666;28;20047;-65
2021/04/26 04:38:58;;;;;;;13.75;4.70;;;;;;;;;;5074338;28;20027;-65
2021/04/26 04:41:23;;;;;;;15.68;5.45;;;;;;;;;;5058889;28;20432;-65
2021/04/26 04:43:48;;;;;;;14.23;5.47;;;;;;;;;;5055772;28;20455;-65
2021/04/26 04:46:13;;;;;;;16.40;4.88;;;;;;;;;;5055716;28;20470;-65
2021/04/26 04:48:38;;;;;;;10.07;4.55;;;;;;;;;;5050734;28;20025;-65
2021/04/26 04:51:04;;;;;;;17.83;5.20;;;;;;;;;;5053165;28;20143;-65
2021/04/26 04:53:29;;;;;;;12.05;4.38;;;;;;;;;;5051739;28;20052;-65
2021/04/26 04:55:54;;;;;;;14.18;4.43;;;;;;;;;;5053284;28;21613;-65
2021/04/26 04:58:19;;;;;;;9.07;4.25;;;;;;;;;;5053775;28;20017;-65
2021/04/26 05:00:44;;;;;;;10.52;4.65;;;;;;;;;;5053076;28;20075;-65
2021/04/26 05:03:10;;;;;;;22.10;4.80;;;;;;;;;;5049354;28;20029;-65
2021/04/26 05:05:35;;;;;;;12.73;3.90;;;;;;;;;;5045948;28;20036;-65
2021/04/26 05:08:01;;;;;;;18.33;4.90;;;;;;;;;;5053219;28;20033;-65
2021/04/26 05:10:26;;;;;;;9.32;4.25;;;;;;;;;;5052996;28;20032;-65
2021/04/26 05:12:51;;;;;;;13.77;4.90;;;;;;;;;;5048480;28;20036;-65
2021/04/26 05:15:16;;;;;;;7.30;4.13;;;;;;;;;;5045723;28;20442;-65
2021/04/26 05:17:41;;;;;;;10.32;3.50;;;;;;;;;;5045486;28;20036;-65
2021/04/26 05:20:07;;;;;;;14.98;4.70;;;;;;;;;;5049376;28;20483;-65
2021/04/26 05:22:34;;;;;;;11.95;3.65;;;;;;;;;;5049506;28;20035;-65
2021/04/26 05:25:00;;;;;;;8.52;3.50;;;;;;;;;;5048668;28;20054;-65
2021/04/26 05:27:25;;;;;;;9.13;3.60;;;;;;;;;;5044925;28;20032;-65
2021/04/26 05:29:50;;;;;;;10.20;3.97;;;;;;;;;;5040784;28;20036;-65
2021/04/26 05:32:15;;;;;;;6.20;3.22;;;;;;;;;;5044781;28;20021;-65
2021/04/26 05:34:41;;;;;;;5.97;3.00;;;;;;;;;;5049941;28;20112;-65
2021/04/26 05:37:06;;;;;;;11.88;4.00;;;;;;;;;;5046370;28;20030;-65
2021/04/26 05:39:31;;;;;;;7.05;3.15;;;;;;;;;;5047129;28;20033;-65
2021/04/26 05:41:56;;;;;;;7.35;3.22;;;;;;;;;;5046879;28;20017;-65
2021/04/26 05:44:22;;;;;;;6.93;3.10;;;;;;;;;;5047787;28;20029;-65
2021/04/26 05:46:47;;;;;;;13.60;5.72;;;;;;;;;;5048640;28;20112;-65
2021/04/26 05:49:12;;;;;;;8.18;4.18;;;;;;;;;;5049132;28;20025;-66
2021/04/26 05:51:37;;;;;;;11.68;3.83;;;;;;;;;;5052269;28;20397;-65
2021/04/26 05:54:02;;;;;;;14.43;3.60;;;;;;;;;;5048186;28;20040;-65
2021/04/26 05:56:28;;;;;;;6.15;3.15;;;;;;;;;;5043678;28;20028;-65
2021/04/26 05:58:53;;;;;;;8.43;2.08;;;;;;;;;;5047672;28;20017;-65
2021/04/26 06:01:18;;;;;;;15.32;3.85;;;;;;;;;;5050645;28;20057;-65
2021/04/26 06:03:43;;;;;;;7.88;2.72;;;;;;;;;;5048645;28;20119;-65
2021/04/26 06:06:08;;;;;;;6.65;2.83;;;;;;;;;;5047953;28;20396;-65
2021/04/26 06:08:34;;;;;;;5.28;2.22;;;;;;;;;;5040781;28;20087;-66
2021/04/26 06:11:00;;;;;;;27.08;3.03;;;;;;;;;;5050395;28;20488;-65
2021/04/26 06:13:25;;;;;;;6.03;2.70;;;;;;;;;;5050563;28;20067;-65
2021/04/26 06:15:50;;;;;;;6.40;2.85;;;;;;;;;;5050076;28;20024;-65
2021/04/26 06:18:16;;;;;;;8.98;2.58;;;;;;;;;;5044413;28;20095;-65
2021/04/26 06:20:43;;;;;;;13.35;2.22;;;;;;;;;;5050021;28;20029;-67
2021/04/26 06:23:08;;;;;;;6.75;2.40;;;;;;;;;;5049585;28;20025;-66
2021/04/26 06:25:35;;;;;;;10.68;2.10;;;;;;;;;;5050076;28;20017;-66
2021/04/26 06:28:00;;;;;;;4.68;1.73;;;;;;;;;;5050489;28;20074;-67
2021/04/26 06:30:26;;;;;;;3.65;1.48;;;;;;;;;;5051021;28;20028;-65
2021/04/26 06:32:51;;;;;;;9.68;2.38;;;;;;;;;;5050176;28;20521;-67
2021/04/26 06:35:16;;;;;;;5.60;1.95;;;;;;;;;;5049980;28;20029;-66
2021/04/26 06:37:41;;;;;;;9.30;3.13;;;;;;;;;;5050557;28;20159;-66
2021/04/26 06:40:07;;;;;;;7.07;2.25;;;;;;;;;;5050218;28;20025;-66
2021/04/26 06:42:32;;;;;;;6.55;1.85;;;;;;;;;;5050436;28;20665;-65
2021/04/26 06:44:57;;;;;;;4.28;1.90;;;;;;;;;;5050589;28;20280;-68
2021/04/26 06:47:22;;;;;;;3.55;1.60;;;;;;;;;;5047404;28;20033;-65
2021/04/26 06:49:48;;;;;;;6.25;2.15;;;;;;;;;;5050389;28;20056;-67
2021/04/26 06:52:13;;;;;;;9.10;1.90;;;;;;;;;;5050685;28;20057;-67
2021/04/26 06:54:38;;;;;;;6.18;1.27;;;;;;;;;;5050445;28;20039;-67
2021/04/26 06:57:03;;;;;;;4.40;1.63;;;;;;;;;;5049785;28;20064;-66
2021/04/26 06:59:29;;;;;;;9.07;1.75;;;;;;;;;;5049687;28;20315;-65
2021/04/26 07:01:54;;;;;;;4.95;1.70;;;;;;;;;;5050179;28;20024;-68
2021/04/26 07:04:19;;;;;;;6.53;2.25;;;;;;;;;;5050738;28;20537;-67
2021/04/26 07:06:44;;;;;;;7.27;2.00;;;;;;;;;;5049616;28;20025;-67
2021/04/26 07:09:10;;;;;;;8.07;2.15;;;;;;;;;;5049010;28;20275;-65
2021/04/26 07:11:36;;;;;;;4.07;1.55;;;;;;;;;;5050318;28;20031;-65
2021/04/26 07:14:01;;;;;;;5.38;1.60;;;;;;;;;;5047360;28;20488;-65
2021/04/26 07:16:27;;;;;;;4.90;1.63;;;;;;;;;;5048043;28;20025;-66
2021/04/26 07:18:52;;;;;;;4.07;1.45;;;;;;;;;;5043998;28;20491;-66
2021/04/26 07:21:17;;;;;;;4.47;1.47;;;;;;;;;;5045890;28;20532;-66
2021/04/26 07:23:42;;;;;;;3.73;1.33;;;;;;;;;;5049697;28;20259;-66
2021/04/26 07:26:08;;;;;;;4.45;1.65;;;;;;;;;;5050070;28;20267;-66
2021/04/26 07:28:34;;;;;;;3.40;1.35;;;;;;;;;;5049565;28;20489;-67
2021/04/26 07:30:59;;;;;;;6.47;1.60;;;;;;;;;;5047420;28;20186;-67
2021/04/26 07:33:24;;;;;;;4.07;1.50;;;;;;;;;;5048707;28;20032;-65
2021/04/26 07:35:49;;;;;;;5.47;1.73;;;;;;;;;;5045536;28;20040;-67
2021/04/26 07:38:14;;;;;;;2.63;1.20;;;;;;;;;;5046191;28;20119;-65
2021/04/26 07:40:40;;;;;;;6.50;0.77;;;;;;;;;;5050340;28;20282;-65
2021/04/26 07:43:05;;;;;;;2.03;1.10;;;;;;;;;;5045559;28;20271;-65
2021/04/26 07:45:31;;;;;;;10.23;1.73;;;;;;;;;;5044550;28;20104;-66
2021/04/26 07:47:57;;;;;;;7.32;1.42;;;;;;;;;;5049078;28;20454;-67
2021/04/26 07:50:22;;;;;;;1.90;1.27;;;;;;;;;;5048435;28;20744;-67
2021/04/26 07:52:48;;;;;;;2.83;1.10;;;;;;;;;;5049691;28;20044;-66
2021/04/26 07:55:13;;;;;;;5.43;1.70;;;;;;;;;;5049224;28;20028;-66
2021/04/26 07:57:38;;;;;;;5.25;1.92;;;;;;;;;;5049029;28;20306;-66
2021/04/26 08:00:07;;;;;;;6.35;1.75;;;;;;;;;;5040092;28;20021;-67
2021/04/26 08:02:32;;;;;;;6.95;1.40;;;;;;;;;;5041059;28;20509;-68
2021/04/26 08:04:57;;;;;;;4.82;1.25;;;;;;;;;;5045126;28;20041;-67
2021/04/26 08:07:22;;;;;;;3.53;1.17;;;;;;;;;;5049479;28;20029;-67
2021/04/26 08:09:47;;;;;;;3.10;0.93;;;;;;;;;;5047752;28;20770;-67
2021/04/26 08:12:13;;;;;;;3.30;1.20;;;;;;;;;;5039034;28;20121;-67
2021/04/26 08:14:38;;;;;;;3.50;1.50;;;;;;;;;;5045792;28;20083;-66
2021/04/26 08:17:03;;;;;;;1.70;1.10;;;;;;;;;;5049690;28;20029;-66
2021/04/26 08:19:28;;;;;;;4.23;1.13;;;;;;;;;;5051085;28;20271;-67
2021/04/26 08:21:54;;;;;;;6.77;1.30;;;;;;;;;;5048003;28;20313;-65
2021/04/26 08:24:19;;;;;;;1.80;0.80;;;;;;;;;;5048603;28;20303;-67
2021/04/26 08:26:44;;;;;;;1.23;0.60;;;;;;;;;;5049605;28;20116;-66
2021/04/26 08:29:09;;;;;;;2.17;1.13;;;;;;;;;;5049446;28;20036;-66
2021/04/26 08:31:35;;;;;;;2.90;1.23;;;;;;;;;;5048422;28;20021;-65
2021/04/26 08:34:00;;;;;;;2.88;1.25;;;;;;;;;;5049361;28;20681;-65
2021/04/26 08:36:25;;;;;;;4.25;1.33;;;;;;;;;;5048327;28;20024;-66
2021/04/26 08:38:50;;;;;;;2.20;0.90;;;;;;;;;;5039642;28;20021;-68
2021/04/26 08:41:16;;;;;;;6.97;1.50;;;;;;;;;;5043074;28;20017;-66
2021/04/26 08:43:42;;;;;;;2.95;1.05;;;;;;;;;;5049714;28;20263;-66
2021/04/26 08:46:07;;;;;;;3.08;1.30;;;;;;;;;;5047630;28;20374;-66
2021/04/26 08:48:32;;;;;;;4.28;1.55;;;;;;;;;;5050838;28;20029;-65
2021/04/26 08:51:00;;;;;;;6.35;1.35;;;;;;;;;;5052645;28;20025;-68
2021/04/26 08:53:25;;;;;;;6.93;1.42;;;;;;;;;;5052715;28;20063;-66
2021/04/26 08:55:50;;;;;;;2.73;1.17;;;;;;;;;;5049015;28;20409;-65
2021/04/26 08:58:15;;;;;;;3.87;1.50;;;;;;;;;;5052248;28;20271;-66
2021/04/26 09:00:41;;;;;;;3.33;1.13;;;;;;;;;;5050004;28;20303;-65
2021/04/26 09:03:06;;;;;;;6.15;1.50;;;;;;;;;;5052380;28;20278;-66
2021/04/26 09:05:38;;;;;;;21.77;1.35;;;;;;;;;;5052433;28;20107;-68
2021/04/26 09:08:05;;;;;;;4.18;1.40;;;;;;;;;;5048458;28;20021;-68
2021/04/26 09:10:34;;;;;;;2.60;1.30;;;;;;;;;;5052407;28;20025;-68
2021/04/26 09:13:19;;;;;;;2.17;1.00;;;;;;;;;;5052199;28;20029;-66
2021/04/26 09:15:56;;;;;;;5.72;1.58;;;;;;;;;;5051806;28;20488;-67
2021/04/26 09:18:41;;;;;;;5.40;1.30;;;;;;;;;;5051151;28;20025;-66
2021/04/26 09:21:15;;;;;;;4.72;1.38;;;;;;;;;;5051517;28;20400;-66
2021/04/26 09:23:40;;;;;;;1.58;1.05;;;;;;;;;;5052295;28;20017;-68
2021/04/26 09:26:21;;;;;;;8.15;1.30;;;;;;;;;;5052570;28;20024;-67
2021/04/26 09:29:07;;;;;;;3.13;1.17;;;;;;;;;;5046037;28;20110;-66
2021/04/26 09:31:32;;;;;;;4.25;1.38;;;;;;;;;;5051664;28;20053;-66
2021/04/26 09:33:57;;;;;;;7.40;1.30;;;;;;;;;;5052538;28;20067;-67
2021/04/26 09:36:23;;;;;;;1.92;1.10;;;;;;;;;;5051721;28;20158;-65
2021/04/26 09:38:52;;;;;;;4.03;0.68;;;;;;;;;;5051385;28;20393;-66
2021/04/26 09:41:25;;;;;;;7.47;0.90;;;;;;;;;;5051903;28;20059;-66
2021/04/26 09:43:53;;;;;;;1.83;0.90;;;;;;;;;;5050856;28;20499;-66
2021/04/26 09:46:19;;;;;;;7.38;1.35;;;;;;;;;;5049733;28;20036;-66
2021/04/26 09:48:44;;;;;;;2.03;1.05;;;;;;;;;;5043577;28;20064;-66
2021/04/26 09:51:16;;;;;;;2.10;1.03;;;;;;;;;;5040473;28;20056;-66
2021/04/26 09:53:41;;;;;;;1.80;0.85;;;;;;;;;;5047701;28;20267;-66
2021/04/26 09:56:16;;;;;;;1.60;1.00;;;;;;;;;;5051098;28;20651;-67
2021/04/26 09:58:42;;;;;;;6.47;1.08;;;;;;;;;;5050700;28;20259;-65
2021/04/26 10:01:07;;;;;;;4.50;1.05;;;;;;;;;;5051788;28;20075;-65
2021/04/26 10:03:33;;;;;;;3.20;1.40;;;;;;;;;;5050948;28;20025;-67
2021/04/26 10:05:58;;;;;;;6.68;1.35;;;;;;;;;;5051429;28;20023;-67
2021/04/26 10:08:23;;;;;;;5.75;1.10;;;;;;;;;;5051037;28;20064;-66
2021/04/26 10:10:48;;;;;;;2.15;0.88;;;;;;;;;;5051286;28;20023;-67
2021/04/26 10:13:17;;;;;;;6.47;1.80;;;;;;;;;;5048359;28;20470;-67
2021/04/26 10:15:43;;;;;;;4.72;1.30;;;;;;;;;;5051753;28;20141;-67
2021/04/26 10:18:09;;;;;;;1.30;0.60;;;;;;;;;;5035286;28;20087;-66
2021/04/26 10:20:42;;;;;;;3.28;1.17;;;;;;;;;;5049926;28;20194;-67
2021/04/26 10:23:26;;;;;;;3.08;0.70;;;;;;;;;;5037119;28;20359;-65
2021/04/26 10:25:51;;;;;;;3.08;1.20;;;;;;;;;;5049792;28;20120;-67
2021/04/26 10:28:29;;;;;;;3.40;1.00;;;;;;;;;;5050882;28;20147;-66
2021/04/26 10:30:58;;;;;;;3.08;1.23;;;;;;;;;;5050753;28;20055;-67
2021/04/26 10:33:23;;;;;;;4.13;1.43;;;;;;;;;;5050173;28;20067;-69
2021/04/26 10:35:53;;;;;;;6.18;1.10;;;;;;;;;;5043897;28;20048;-66
2021/04/26 10:38:37;;;;;;;2.80;1.00;;;;;;;;;;5044362;28;20461;-67
2021/04/26 10:41:03;;;;;;;6.40;1.10;;;;;;;;;;5031663;28;20029;-67
2021/04/26 10:43:29;;;;;;;4.15;1.20;;;;;;;;;;5049767;28;20044;-69
2021/04/26 10:46:18;;;;;;;4.22;1.02;;;;;;;;;;5049563;28;20017;-67
2021/04/26 10:49:01;;;;;;;7.50;1.17;;;;;;;;;;5037323;28;20098;-65
2021/04/26 10:51:27;;;;;;;7.63;1.00;;;;;;;;;;5052044;28;20031;-66
2021/04/26 10:53:52;;;;;;;6.03;1.43;;;;;;;;;;5051069;28;20111;-66
2021/04/26 10:56:22;;;;;;;5.05;1.17;;;;;;;;;;5042324;28;20283;-66
2021/04/26 10:58:47;;;;;;;4.40;1.17;;;;;;;;;;5050599;28;20466;-66
2021/04/26 11:01:18;;;;;;;2.40;1.05;;;;;;;;;;5049452;28;20107;-66
2021/04/26 11:03:44;;;;;;;3.80;0.98;;;;;;;;;;5050874;28;20028;-66
2021/04/26 11:06:10;;;;;;;6.88;1.42;;;;;;;;;;5049761;28;20092;-67
2021/04/26 11:08:40;;;;;;;3.45;1.35;;;;;;;;;;5049745;28;20032;-66
2021/04/26 11:13:54;;;;;;;2.65;1.17;;;;;;;;;;5050854;28;20120;-65
2021/04/26 11:16:24;;;;;;;1.75;0.75;;;;;;;;;;5044961;28;20033;-65
2021/04/26 11:18:58;;;;;;;4.47;1.00;;;;;;;;;;5050231;28;20059;-69
2021/04/26 11:21:41;;;;;;;1.80;0.95;;;;;;;;;;5030687;28;20421;-66
2021/04/26 11:24:07;;;;;;;1.63;0.80;;;;;;;;;;5038860;28;20087;-66
2021/04/26 11:26:33;;;;;;;0.98;0.60;;;;;;;;;;5050131;28;20025;-66
2021/04/26 11:29:01;;;;;;;4.25;1.25;;;;;;;;;;5049165;28;20519;-69
2021/04/26 11:31:52;;;;;;;5.05;1.27;;;;;;;;;;5050665;28;20031;-66
2021/04/26 11:34:18;;;;;;;3.10;1.10;;;;;;;;;;5025648;28;20045;-66
2021/04/26 11:37:02;;;;;;;7.75;1.50;;;;;;;;;;5049460;28;20039;-66
2021/04/26 11:39:31;;;;;;;3.08;1.40;;;;;;;;;;5049827;28;20391;-65
2021/04/26 11:41:57;;;;;;;2.78;1.42;;;;;;;;;;5048791;28;20501;-66
2021/04/26 11:44:31;;;;;;;4.90;1.60;;;;;;;;;;5048062;28;20477;-66
2021/04/26 11:47:02;;;;;;;4.78;1.60;;;;;;;;;;5049031;28;20393;-66
2021/04/26 11:49:27;;;;;;;4.32;1.48;;;;;;;;;;5044795;28;20032;-66
2021/04/26 11:51:53;;;;;;;8.57;1.98;;;;;;;;;;5044454;28;20064;-66
2021/04/26 11:54:26;;;;;;;8.45;1.52;;;;;;;;;;5045198;28;20031;-66
2021/04/26 11:57:03;;;;;;;5.50;1.30;;;;;;;;;;5048361;28;20509;-66
2021/04/26 11:59:29;;;;;;;4.50;1.25;;;;;;;;;;5049245;28;20112;-66
2021/04/26 12:01:54;;;;;;;4.00;2.50;;;;;;;;;;5049667;28;20084;-68
2021/04/26 12:04:39;;;;;;;5.65;1.10;;;;;;;;;;5048483;28;20051;-69
2021/04/26 12:07:07;;;;;;;4.07;1.27;;;;;;;;;;5040549;28;20417;-69
2021/04/26 12:09:32;;;;;;;5.72;1.60;;;;;;;;;;5040793;28;20116;-66
2021/04/26 12:12:00;;;;;;;3.50;1.30;;;;;;;;;;5044862;28;20099;-67
2021/04/26 12:14:26;;;;;;;5.30;1.45;;;;;;;;;;5048949;28;20029;-65
2021/04/26 12:16:51;;;;;;;5.20;1.98;;;;;;;;;;5049102;28;20031;-69
2021/04/26 12:19:30;;;;;;;4.45;1.73;;;;;;;;;;5056881;23;20051;-85
2021/04/26 12:21:55;;;;;;;3.50;1.67;;;;;;;;;;5041920;28;20033;-86
2021/04/26 12:24:20;;;;;;;2.28;1.25;;;;;;;;;;5035504;28;20017;-84
2021/04/26 12:26:46;;;;;;;3.38;2.13;;;;;;;;;;5052769;28;20365;-87
2021/04/26 12:29:24;;;;;;;2.78;1.55;;;;;;;;;;5033576;28;20078;-88
2021/04/26 12:32:06;;;;;;;4.38;1.17;;;;;;;;;;5036615;28;20555;-86
2021/04/26 12:34:31;;;;;;;3.22;1.23;;;;;;;;;;5032188;28;20049;-86
2021/04/26 12:37:00;;;;;;;5.32;1.73;;;;;;;;;;5049408;28;20485;-86
2021/04/26 12:39:28;;;;;;;7.30;1.83;;;;;;;;;;5033192;28;20063;-87
2021/04/26 12:41:54;;;;;;;2.38;1.25;;;;;;;;;;5035226;28;20009;-85
2021/04/26 12:44:26;;;;;;;4.53;1.70;;;;;;;;;;5035623;28;20021;-86
2021/04/26 12:46:51;;;;;;;3.72;1.83;;;;;;;;;;5025179;28;20025;-87
2021/04/26 12:49:17;;;;;;;6.15;1.90;;;;;;;;;;5029380;28;20112;-86
2021/04/26 12:51:42;;;;;;;3.65;1.67;;;;;;;;;;5043296;28;20542;-86
2021/04/26 12:54:09;;;;;;;8.40;2.35;;;;;;;;;;5049232;28;20074;-85
2021/04/26 12:56:34;;;;;;;7.95;2.92;;;;;;;;;;5044626;28;20033;-85
2021/04/26 12:58:59;;;;;;;2.65;1.33;;;;;;;;;;5029146;28;20082;-85
2021/04/26 13:01:25;;;;;;;4.38;1.70;;;;;;;;;;5027637;28;20021;-86
2021/04/26 13:03:51;;;;;;;5.03;1.92;;;;;;;;;;5052371;28;20029;-86
2021/04/26 13:06:20;;;;;;;12.27;3.08;;;;;;;;;;5052806;28;20463;-86
2021/04/26 13:08:50;;;;;;;6.40;1.83;;;;;;;;;;5048530;28;20025;-86
2021/04/26 13:11:34;;;;;;;5.23;1.77;;;;;;;;;;5051509;28;20017;-86
2021/04/26 13:14:03;;;;;;;9.30;2.00;;;;;;;;;;5044845;28;20048;-86
2021/04/26 13:16:30;;;;;;;9.30;1.88;;;;;;;;;;5047514;28;20059;-85
2021/04/26 13:18:57;;;;;;;4.78;2.33;;;;;;;;;;5051903;28;20447;-86
2021/04/26 13:21:24;;;;;;;4.60;2.20;;;;;;;;;;5045051;28;20013;-85
2021/04/26 13:23:52;;;;;;;6.95;1.58;;;;;;;;;;5051625;28;20032;-85
2021/04/26 13:26:21;;;;;;;11.10;2.30;;;;;;;;;;5036623;28;20025;-85
2021/04/26 13:28:46;;;;;;;3.92;2.22;;;;;;;;;;5027626;28;20024;-84
2021/04/26 13:31:11;;;;;;;6.27;2.10;;;;;;;;;;5052074;28;20029;-83
2021/04/26 13:33:36;;;;;;;5.13;2.30;;;;;;;;;;5033515;28;20358;-85
2021/04/26 13:36:02;;;;;;;6.15;1.85;;;;;;;;;;5034207;28;20445;-87
2021/04/26 13:38:30;;;;;;;6.07;2.58;;;;;;;;;;5047392;28;20511;-86
2021/04/26 13:40:55;;;;;;;4.25;1.80;;;;;;;;;;5033860;28;20017;-87
2021/04/26 13:43:21;;;;;;;6.43;2.15;;;;;;;;;;5084565;23;20036;-63
2021/04/26 13:45:47;;;;;;;4.93;2.17;;;;;;;;;;5090018;28;20639;-64
2021/04/26 13:48:13;;;;;;;5.07;2.40;;;;;;;;;;5086180;28;20073;-63
2021/04/26 13:50:38;;;;;;;7.22;2.85;;;;;;;;;;5089785;28;20415;-63
2021/04/26 13:53:03;;;;;;;4.13;2.22;;;;;;;;;;5087431;28;20054;-63
2021/04/26 13:55:29;;;;;;;5.13;2.30;;;;;;;;;;5087298;28;20472;-64
2021/04/26 13:57:54;;;;;;;6.88;2.50;;;;;;;;;;5085515;28;20020;-63
2021/04/26 14:00:19;;;;;;;9.48;2.15;;;;;;;;;;5091194;28;20032;-64
2021/04/26 14:02:45;;;;;;;5.25;2.88;;;;;;;;;;5091843;28;20388;-64
2021/04/26 14:05:11;;;;;;;5.45;2.55;;;;;;;;;;5086639;28;20047;-63
2021/04/26 14:07:36;;;;;;;5.30;2.70;;;;;;;;;;5091189;28;20086;-63
2021/04/26 14:10:01;;;;;;;5.30;2.53;;;;;;;;;;5090178;28;20024;-63
2021/04/26 14:12:26;;;;;;;10.70;2.35;;;;;;;;;;5091407;28;20528;-64
2021/04/26 14:14:52;;;;;;;7.57;2.88;;;;;;;;;;5090878;28;20813;-63
2021/04/26 14:17:17;;;;;;;10.48;3.10;;;;;;;;;;5091051;28;20032;-64
2021/04/26 14:19:42;;;;;;;4.72;2.45;;;;;;;;;;5090771;28;20098;-64
2021/04/26 14:22:07;;;;;;;11.10;2.83;;;;;;;;;;5092073;28;20024;-65
2021/04/26 14:24:32;;;;;;;2.85;1.80;;;;;;;;;;5087874;28;20487;-64
2021/04/26 14:26:59;;;;;;;10.68;3.20;;;;;;;;;;5082758;28;20360;-65
2021/04/26 14:29:24;;;;;;;9.38;4.20;;;;;;;;;;5090807;28;20039;-63
2021/04/26 14:31:50;;;;;;;13.15;3.28;;;;;;;;;;5082431;28;20098;-65
2021/04/26 14:34:15;;;;;;;7.23;3.10;;;;;;;;;;5083109;28;20024;-63
2021/04/26 14:36:40;;;;;;;9.10;3.13;;;;;;;;;;5090314;28;20293;-65
2021/04/26 14:39:05;;;;;;;7.60;3.45;;;;;;;;;;5089147;28;20403;-64